Wetterdaten: aktuell Sonntag, 22.10.2017 09:45
Datum Zeit Temp. A. Feuchte A. Luftdruck Regen Wind Richtung Richtung Taupunkt Windchill Windben
22.10.2017 09:45 9,7 C 93 % 1007,7 hPa 0,0 l/m 12,8 km/h (3 Bft) O-NO 66 8,6 C 5,8 C 30,6 km/h (5 Bft)
22.10.2017 09:32 9,7 C 94 % 1007,6 hPa 0,0 l/m 11,3 km/h (2 Bft) N-NO 16 8,8 C 6,5 C 32,2 km/h (5 Bft)
22.10.2017 09:15 9,5 C 94 % 1007,6 hPa 0,3 l/m 11,1 km/h (2 Bft) N-NO 22 8,6 C 6,4 C 24,1 km/h (4 Bft)
22.10.2017 09:01 9,4 C 94 % 1007,6 hPa 0,3 l/m 10,4 km/h (2 Bft) NO 48 8,5 C 6,7 C 27,4 km/h (4 Bft)
22.10.2017 08:45 9,3 C 93 % 1007,5 hPa 0,0 l/m 9,6 km/h (2 Bft) N-NO 18 8,2 C 7,1 C 24,1 km/h (4 Bft)
22.10.2017 08:30 9,2 C 93 % 1007,4 hPa 0,0 l/m 10,5 km/h (2 Bft) N-NO 14 8,1 C 6,4 C 25,7 km/h (4 Bft)
22.10.2017 08:23 9,2 C 93 % 1007,4 hPa 0,3 l/m 12,1 km/h (2 Bft) NO 50 8,1 C 5,5 C 14,5 km/h (3 Bft)
22.10.2017 08:16 9,2 C 92 % 1007,4 hPa 0,0 l/m 11,6 km/h (2 Bft) N 9 8,0 C 5,8 C 27,4 km/h (4 Bft)
22.10.2017 08:00 9,2 C 91 % 1007,3 hPa 0,0 l/m 12,7 km/h (3 Bft) N-NO 31 7,8 C 5,2 C 35,4 km/h (5 Bft)
22.10.2017 07:45 9,3 C 90 % 1007,3 hPa 0,5 l/m 11,7 km/h (2 Bft) N 360 7,7 C 5,9 C 27,4 km/h (4 Bft)
22.10.2017 07:30 9,7 C 88 % 1007,5 hPa 0,3 l/m 11,8 km/h (2 Bft) N 358 7,8 C 6,3 C 33,8 km/h (5 Bft)
22.10.2017 07:15 10,1 C 85 % 1007,6 hPa 0,3 l/m 12,6 km/h (3 Bft) NO 45 7,7 C 6,3 C 29,0 km/h (5 Bft)
22.10.2017 07:00 10,6 C 83 % 1007,7 hPa 0,0 l/m 13,9 km/h (3 Bft) O-NO 65 7,8 C 6,3 C 32,2 km/h (5 Bft)
22.10.2017 06:45 10,9 C 82 % 1007,8 hPa 0,0 l/m 9,2 km/h (2 Bft) N 8 7,9 C 9,0 C 20,9 km/h (4 Bft)
22.10.2017 06:30 11,1 C 80 % 1007,8 hPa 0,0 l/m 15,2 km/h (3 Bft) N 354 7,8 C 6,4 C 29,0 km/h (5 Bft)
22.10.2017 06:15 11,2 C 79 % 1007,8 hPa 0,0 l/m 13,1 km/h (3 Bft) NO 55 7,7 C 7,4 C 24,1 km/h (4 Bft)
22.10.2017 06:00 11,3 C 79 % 1008,1 hPa 0,0 l/m 13,8 km/h (3 Bft) N 11 7,8 C 7,2 C 27,4 km/h (4 Bft)
22.10.2017 05:45 11,3 C 79 % 1008,1 hPa 0,0 l/m 12,3 km/h (3 Bft) N 6 7,8 C 7,9 C 25,7 km/h (4 Bft)
22.10.2017 05:31 11,2 C 79 % 1008,1 hPa 0,0 l/m 10,7 km/h (2 Bft) NO 43 7,7 C 8,5 C 27,4 km/h (4 Bft)
22.10.2017 05:15 11,0 C 80 % 1008,2 hPa 0,0 l/m 10,8 km/h (2 Bft) N 360 7,7 C 8,3 C 22,5 km/h (4 Bft)
22.10.2017 05:00 10,8 C 80 % 1008,4 hPa 0,0 l/m 10,2 km/h (2 Bft) N 359 7,5 C 8,4 C 25,7 km/h (4 Bft)
22.10.2017 04:45 10,8 C 81 % 1008,4 hPa 0,0 l/m 8,7 km/h (2 Bft) N-NO 18 7,7 C 9,2 C 22,5 km/h (4 Bft)
22.10.2017 04:30 10,9 C 81 % 1008,5 hPa 0,0 l/m 7,6 km/h (2 Bft) N-NO 12 7,8 C 10,1 C 24,1 km/h (4 Bft)
22.10.2017 04:16 10,9 C 81 % 1008,6 hPa 0,0 l/m 8,2 km/h (2 Bft) N 359 7,8 C 9,7 C 24,1 km/h (4 Bft)
22.10.2017 04:00 10,9 C 82 % 1008,6 hPa 0,0 l/m 6,6 km/h (2 Bft) N 350 7,9 C 10,8 C 20,9 km/h (4 Bft)
22.10.2017 03:45 11,0 C 82 % 1008,7 hPa 0,0 l/m 8,1 km/h (2 Bft) N 358 8,0 C 9,8 C 22,5 km/h (4 Bft)
22.10.2017 03:30 11,1 C 82 % 1008,8 hPa 0,0 l/m 7,5 km/h (2 Bft) N-NW 341 8,1 C 10,3 C 17,7 km/h (3 Bft)
22.10.2017 03:23 11,1 C 81 % 1008,9 hPa 0,0 l/m 6,8 km/h (2 Bft) N 7 8,0 C 10,8 C 19,3 km/h (3 Bft)
22.10.2017 03:00 11,2 C 81 % 1009,1 hPa 0,0 l/m 7,2 km/h (2 Bft) N 7 8,1 C 10,6 C 20,9 km/h (4 Bft)
22.10.2017 02:52 11,3 C 81 % 1009,1 hPa 0,0 l/m 6,9 km/h (2 Bft) N-NO 29 8,2 C 11,0 C 19,3 km/h (3 Bft)
22.10.2017 02:30 11,6 C 80 % 1009,2 hPa 0,0 l/m 7,0 km/h (2 Bft) NO 40 8,3 C 11,2 C 16,1 km/h (3 Bft)
22.10.2017 02:17 11,6 C 80 % 1009,2 hPa 0,0 l/m 3,2 km/h (1 Bft) N-NO 25 8,3 C 11,6 C 4,8 km/h (1 Bft)
22.10.2017 02:16 11,6 C 80 % 1009,3 hPa 0,0 l/m 9,5 km/h (2 Bft) N-NO 29 8,3 C 9,6 C 25,7 km/h (4 Bft)
22.10.2017 02:00 11,7 C 82 % 1009,3 hPa 0,0 l/m 9,5 km/h (2 Bft) N-NO 14 8,7 C 9,7 C 24,1 km/h (4 Bft)
22.10.2017 01:45 11,8 C 82 % 1009,4 hPa 0,0 l/m 10,2 km/h (2 Bft) N-NO 14 8,8 C 9,5 C 17,7 km/h (3 Bft)
22.10.2017 01:30 11,8 C 83 % 1009,6 hPa 0,0 l/m 8,6 km/h (2 Bft) N-NO 24 9,0 C 10,4 C 19,3 km/h (3 Bft)
22.10.2017 01:15 11,8 C 84 % 1009,7 hPa 0,0 l/m 9,9 km/h (2 Bft) N-NW 343 9,2 C 9,6 C 24,1 km/h (4 Bft)
22.10.2017 01:00 11,6 C 86 % 1009,8 hPa 0,0 l/m 8,2 km/h (2 Bft) N-NO 25 9,3 C 10,4 C 20,9 km/h (4 Bft)
22.10.2017 00:45 11,1 C 88 % 1010,0 hPa 0,0 l/m 6,4 km/h (2 Bft) N 360 9,2 C 11,1 C 14,5 km/h (3 Bft)
22.10.2017 00:30 10,9 C 88 % 1010,0 hPa 0,0 l/m 3,7 km/h (1 Bft) N 360 9,0 C 10,9 C 8,0 km/h (2 Bft)
22.10.2017 00:16 11,1 C 87 % 1010,1 hPa 0,0 l/m 0,7 km/h (0 Bft) N-NW 339 9,0 C 11,1 C 6,4 km/h (2 Bft)
22.10.2017 00:00 11,5 C 86 % 1010,0 hPa 0,0 l/m 2,0 km/h (1 Bft) N-NW 341 9,2 C 11,5 C 8,0 km/h (2 Bft)
21.10.2017 23:45 11,9 C 86 % 1010,1 hPa 0,0 l/m 0,6 km/h (0 Bft) N 355 9,6 C 11,9 C 6,4 km/h (2 Bft)
21.10.2017 23:30 12,3 C 85 % 1010,2 hPa 0,0 l/m 1,7 km/h (1 Bft) NO 44 9,9 C 12,3 C 9,7 km/h (2 Bft)
21.10.2017 23:15 12,7 C 85 % 1010,3 hPa 0,0 l/m 2,8 km/h (1 Bft) N-NO 18 10,2 C 12,7 C 8,0 km/h (2 Bft)
21.10.2017 23:00 12,9 C 83 % 1010,2 hPa 0,0 l/m 6,1 km/h (2 Bft) N-NO 13 10,1 C 12,9 C 20,9 km/h (4 Bft)
21.10.2017 22:45 13,0 C 82 % 1010,2 hPa 0,0 l/m 9,6 km/h (2 Bft) N-NO 25 10,0 C 11,1 C 27,4 km/h (4 Bft)
21.10.2017 22:30 13,1 C 81 % 1010,0 hPa 0,0 l/m 8,0 km/h (2 Bft) N 360 9,9 C 12,1 C 17,7 km/h (3 Bft)
21.10.2017 22:16 13,1 C 81 % 1009,9 hPa 0,0 l/m 9,1 km/h (2 Bft) N 6 9,9 C 11,5 C 19,3 km/h (3 Bft)
21.10.2017 22:00 13,1 C 82 % 1009,8 hPa 0,0 l/m 9,3 km/h (2 Bft) N 360 10,1 C 11,4 C 19,3 km/h (3 Bft)
21.10.2017 21:46 12,9 C 82 % 1009,9 hPa 0,0 l/m 7,6 km/h (2 Bft) N 5 9,9 C 12,1 C 17,7 km/h (3 Bft)
21.10.2017 21:30 12,9 C 82 % 1009,9 hPa 0,0 l/m 6,4 km/h (2 Bft) N 360 9,9 C 12,9 C 14,5 km/h (3 Bft)
21.10.2017 21:15 12,9 C 82 % 1009,9 hPa 0,0 l/m 6,7 km/h (2 Bft) N 7 9,9 C 12,7 C 16,1 km/h (3 Bft)
21.10.2017 21:00 13,0 C 83 % 1009,8 hPa 0,0 l/m 4,1 km/h (1 Bft) N 357 10,2 C 13,0 C 11,3 km/h (2 Bft)
21.10.2017 20:45 13,1 C 82 % 1009,8 hPa 0,0 l/m 3,9 km/h (1 Bft) N 3 10,1 C 13,1 C 12,9 km/h (3 Bft)
21.10.2017 20:31 13,2 C 81 % 1009,9 hPa 0,0 l/m 4,1 km/h (1 Bft) N 6 10,0 C 13,2 C 11,3 km/h (2 Bft)
21.10.2017 20:15 13,4 C 80 % 1009,8 hPa 0,0 l/m 4,6 km/h (1 Bft) N-NO 26 10,0 C 13,4 C 12,9 km/h (3 Bft)
21.10.2017 20:00 13,5 C 82 % 1009,9 hPa 0,0 l/m 3,8 km/h (1 Bft) N 10 10,5 C 13,5 C 11,3 km/h (2 Bft)
21.10.2017 19:45 13,8 C 83 % 1009,8 hPa 0,0 l/m 3,3 km/h (1 Bft) N-NO 19 11,0 C 13,8 C 12,9 km/h (3 Bft)
21.10.2017 19:30 14,1 C 83 % 1009,8 hPa 0,0 l/m 5,1 km/h (1 Bft) N 7 11,3 C 14,1 C 12,9 km/h (3 Bft)
21.10.2017 19:15 14,3 C 84 % 1009,8 hPa 0,0 l/m 3,3 km/h (1 Bft) NO 34 11,6 C 14,3 C 12,9 km/h (3 Bft)
21.10.2017 19:00 14,4 C 83 % 1009,6 hPa 0,0 l/m 3,4 km/h (1 Bft) N-NO 16 11,5 C 14,4 C 9,7 km/h (2 Bft)
21.10.2017 18:45 14,6 C 82 % 1009,4 hPa 0,0 l/m 2,3 km/h (1 Bft) N 7 11,6 C 14,6 C 6,4 km/h (2 Bft)
21.10.2017 18:30 14,9 C 81 % 1009,4 hPa 0,0 l/m 3,9 km/h (1 Bft) N-NO 17 11,7 C 14,9 C 11,3 km/h (2 Bft)
21.10.2017 18:16 15,1 C 81 % 1009,4 hPa 0,0 l/m 5,9 km/h (2 Bft) N-NO 31 11,9 C 15,1 C 17,7 km/h (3 Bft)
21.10.2017 18:00 15,1 C 84 % 1009,3 hPa 0,0 l/m 4,6 km/h (1 Bft) N-NO 26 12,4 C 15,1 C 14,5 km/h (3 Bft)
21.10.2017 17:45 15,1 C 85 % 1009,3 hPa 0,0 l/m 2,0 km/h (1 Bft) N-NO 31 12,6 C 15,1 C 8,0 km/h (2 Bft)
21.10.2017 17:30 15,2 C 84 % 1009,2 hPa 0,0 l/m 4,3 km/h (1 Bft) NO 46 12,5 C 15,2 C 17,7 km/h (3 Bft)
21.10.2017 17:16 15,3 C 83 % 1009,3 hPa 0,0 l/m 5,9 km/h (2 Bft) N 10 12,4 C 15,3 C 19,3 km/h (3 Bft)
21.10.2017 17:00 15,2 C 83 % 1009,4 hPa 0,0 l/m 6,9 km/h (2 Bft) N-NO 15 12,3 C 14,9 C 16,1 km/h (3 Bft)
21.10.2017 16:45 15,2 C 84 % 1009,4 hPa 0,0 l/m 6,7 km/h (2 Bft) NO 37 12,5 C 15,0 C 17,7 km/h (3 Bft)
21.10.2017 16:30 15,1 C 85 % 1009,4 hPa 0,0 l/m 8,2 km/h (2 Bft) N-NO 31 12,6 C 14,1 C 19,3 km/h (3 Bft)
21.10.2017 16:17 15,3 C 87 % 1009,3 hPa 0,0 l/m 11,8 km/h (2 Bft) NO 52 13,1 C 12,7 C 12,9 km/h (3 Bft)
21.10.2017 16:16 15,3 C 87 % 1009,3 hPa 0,0 l/m 7,8 km/h (2 Bft) N-NO 31 13,1 C 14,5 C 24,1 km/h (4 Bft)
21.10.2017 16:00 15,9 C 87 % 1009,2 hPa 0,0 l/m 3,4 km/h (1 Bft) N 2 13,7 C 15,9 C 9,7 km/h (2 Bft)
21.10.2017 15:45 16,2 C 86 % 1009,4 hPa 0,0 l/m 5,5 km/h (1 Bft) N-NO 22 13,9 C 16,2 C 14,5 km/h (3 Bft)
21.10.2017 15:30 16,3 C 86 % 1009,4 hPa 0,0 l/m 6,2 km/h (2 Bft) N-NO 26 14,0 C 16,3 C 16,1 km/h (3 Bft)
21.10.2017 15:15 16,2 C 87 % 1009,5 hPa 0,0 l/m 7,0 km/h (2 Bft) N 10 14,0 C 15,9 C 17,7 km/h (3 Bft)
21.10.2017 15:00 16,0 C 88 % 1009,7 hPa 0,0 l/m 6,0 km/h (2 Bft) N-NO 30 14,0 C 16,0 C 16,1 km/h (3 Bft)
21.10.2017 14:45 15,4 C 89 % 1009,6 hPa 0,0 l/m 7,9 km/h (2 Bft) NO 37 13,6 C 14,6 C 19,3 km/h (3 Bft)
21.10.2017 14:30 14,9 C 91 % 1009,7 hPa 0,0 l/m 10,6 km/h (2 Bft) N 10 13,4 C 12,7 C 20,9 km/h (4 Bft)
21.10.2017 14:15 14,6 C 93 % 1009,6 hPa 0,0 l/m 7,1 km/h (2 Bft) N 360 13,5 C 14,2 C 24,1 km/h (4 Bft)
21.10.2017 14:00 14,2 C 94 % 1009,7 hPa 0,0 l/m 8,0 km/h (2 Bft) N-NO 29 13,2 C 13,3 C 22,5 km/h (4 Bft)
21.10.2017 13:46 13,9 C 94 % 1009,7 hPa 0,0 l/m 7,3 km/h (2 Bft) N 9 12,9 C 13,4 C 17,7 km/h (3 Bft)
21.10.2017 13:30 13,4 C 94 % 1009,8 hPa 0,3 l/m 5,4 km/h (1 Bft) N 357 12,5 C 13,4 C 16,1 km/h (3 Bft)
21.10.2017 13:15 13,2 C 94 % 1009,8 hPa 0,0 l/m 5,9 km/h (2 Bft) N 1 12,3 C 13,2 C 16,1 km/h (3 Bft)
21.10.2017 13:00 13,1 C 93 % 1009,9 hPa 0,0 l/m 4,8 km/h (1 Bft) N 3 12,0 C 13,1 C 14,5 km/h (3 Bft)
21.10.2017 12:45 13,0 C 92 % 1010,0 hPa 0,0 l/m 6,1 km/h (2 Bft) N-NO 19 11,7 C 13,0 C 16,1 km/h (3 Bft)
21.10.2017 12:30 12,8 C 92 % 1010,0 hPa 0,0 l/m 7,1 km/h (2 Bft) N 360 11,5 C 12,4 C 17,7 km/h (3 Bft)
21.10.2017 12:15 12,6 C 92 % 1010,1 hPa 0,0 l/m 4,9 km/h (1 Bft) N 9 11,3 C 12,6 C 17,7 km/h (3 Bft)
21.10.2017 12:00 12,2 C 92 % 1010,1 hPa 0,0 l/m 4,5 km/h (1 Bft) N 358 10,9 C 12,2 C 16,1 km/h (3 Bft)
21.10.2017 11:45 12,1 C 91 % 1010,1 hPa 0,0 l/m 4,9 km/h (1 Bft) N 351 10,7 C 12,1 C 24,1 km/h (4 Bft)
21.10.2017 11:30 11,9 C 91 % 1010,0 hPa 0,0 l/m 4,5 km/h (1 Bft) N 2 10,5 C 11,9 C 12,9 km/h (3 Bft)
21.10.2017 11:15 12,0 C 90 % 1010,2 hPa 0,0 l/m 3,4 km/h (1 Bft) N-NW 346 10,4 C 12,0 C 12,9 km/h (3 Bft)
21.10.2017 11:00 12,1 C 88 % 1010,2 hPa 0,0 l/m 4,7 km/h (1 Bft) N-NW 346 10,2 C 12,1 C 14,5 km/h (3 Bft)
21.10.2017 10:45 12,1 C 86 % 1010,3 hPa 0,0 l/m 3,6 km/h (1 Bft) N-NW 327 9,8 C 12,1 C 12,9 km/h (3 Bft)
21.10.2017 10:30 12,1 C 84 % 1010,3 hPa 0,0 l/m 4,0 km/h (1 Bft) N-NO 14 9,5 C 12,1 C 14,5 km/h (3 Bft)
21.10.2017 10:16 12,1 C 84 % 1010,2 hPa 0,0 l/m 6,1 km/h (2 Bft) N-NW 330 9,5 C 12,1 C 17,7 km/h (3 Bft)
21.10.2017 10:00 12,1 C 83 % 1010,3 hPa 0,0 l/m 5,9 km/h (2 Bft) NW 306 9,3 C 12,1 C 17,7 km/h (3 Bft)
_ Min-Zeit 08:00 05:31 07:45 - 23:45 - - 05:00 08:00 02:17
Minimum _ 9,2 C 79 % 1007,3 hPa - 0,6 km/h (0 Bft) - - 7,5 C 5,2 C 4,8 km/h (1 Bft)
_ Max-Zeit 15:15 13:15 10:00 07:45 06:30 - - 15:15 15:30 08:00
Maximum _ 16,3 C 94 % 1010,3 hPa 0,5 l/m 15,2 km/h
N (3 Bft)
- - 14,0 C 16,3 C 35,4 km/h
N-NO (5 Bft)
Durchschnitt _ 12,5 C 85 % 1009,3 hPa #2,0 l/m 7,1 km/h (2 Bft) N - 10,0 C 11,5 C 18,7 km/h (3 Bft)